^^
Saratoga-Weather Station Historical Data
Daily Summary for July 11, 2020 Units:  Metric    English   Both
Daily Weekly Monthly Yearly Custom
  High: Low: Average:
Temperature: 6.6 °C 1.5 °C 4.2 °C
Dew Point: 4.5 °C 0.5 °C 2.6 °C
Humidity: 97% 77% 90%
Wind Speed: 0km/h 0km/h 0km/h
Wind Gust: 4.8km/h - -
Wind- -
Pressure: 1034.2 hPa 1029.8 hPa -
Precipitation: 0.0 mm    
Historical Graphs
 
 
Tabular Data for July 11, 2020
Time Temperature Dew Point Pressure Wind Wind Speed Wind Gust Humidity Rainfall Rate (Hourly) solar
00:00 3.7 °C 2.7 °C 1030.8 hPa Calm     93% 0.0 mm 0 W/m2
00:05 3.6 °C 2.6 °C 1031.2 hPa Calm     93% 0.0 mm 0 W/m2
00:10 3.3 °C 2.3 °C 1031.2 hPa Calm     93% 0.0 mm 0 W/m2
00:15 3.2 °C 2.2 °C 1031.2 hPa Calm     93% 0.0 mm 0 W/m2
00:20 3.2 °C 2.3 °C 1031.5 hPa Calm     94% 0.0 mm 0 W/m2
00:25 3.2 °C 2.3 °C 1031.5 hPa Calm     94% 0.0 mm 0 W/m2
00:30 3.3 °C 2.6 °C 1031.8 hPa Calm   1.6 km/h 95% 0.0 mm 0 W/m2
00:35 3.3 °C 2.6 °C 1031.8 hPa Calm     95% 0.0 mm 0 W/m2
00:40 3.3 °C 2.6 °C 1031.8 hPa Calm     95% 0.0 mm 0 W/m2
00:45 3.5 °C 2.8 °C 1031.8 hPa Calm     95% 0.0 mm 0 W/m2
00:50 3.5 °C 2.8 °C 1031.8 hPa Calm     95% 0.0 mm 0 W/m2
00:55 3.4 °C 2.7 °C 1031.8 hPa Calm     95% 0.0 mm 0 W/m2
01:00 3.3 °C 2.6 °C 1031.8 hPa Calm     95% 0.0 mm 0 W/m2
01:05 3.3 °C 2.6 °C 1031.8 hPa Calm     95% 0.0 mm 0 W/m2
01:10 3.3 °C 2.6 °C 1031.8 hPa Calm   1.6 km/h 95% 0.0 mm 0 W/m2
01:15 3.3 °C 2.6 °C 1031.8 hPa Calm     95% 0.0 mm 0 W/m2
01:20 3.5 °C 2.9 °C 1031.8 hPa Calm     96% 0.0 mm 0 W/m2
01:25 3.7 °C 3.1 °C 1031.8 hPa Calm     96% 0.0 mm 0 W/m2
01:30 3.6 °C 2.9 °C 1031.8 hPa Calm     95% 0.0 mm 0 W/m2
01:35 3.5 °C 2.8 °C 1031.8 hPa Calm     95% 0.0 mm 0 W/m2
01:40 3.3 °C 2.6 °C 1031.8 hPa Calm     95% 0.0 mm 0 W/m2
01:45 3.1 °C 2.4 °C 1031.8 hPa Calm     95% 0.0 mm 0 W/m2
01:50 2.9 °C 2.2 °C 1031.8 hPa Calm     95% 0.0 mm 0 W/m2
01:55 2.7 °C 2 °C 1031.8 hPa Calm     95% 0.0 mm 0 W/m2
02:00 2.8 °C 2.1 °C 1031.8 hPa Calm     95% 0.0 mm 0 W/m2
02:05 3 °C 2.4 °C 1031.8 hPa Calm     96% 0.0 mm 0 W/m2
02:10 3.2 °C 2.6 °C 1031.8 hPa Calm     96% 0.0 mm 0 W/m2
02:15 3.2 °C 2.6 °C 1031.8 hPa Calm     96% 0.0 mm 0 W/m2
02:20 3.1 °C 2.4 °C 1031.8 hPa Calm     95% 0.0 mm 0 W/m2
02:25 2.9 °C 2.2 °C 1031.8 hPa Calm     95% 0.0 mm 0 W/m2
02:30 2.7 °C 2 °C 1031.8 hPa Calm     95% 0.0 mm 0 W/m2
02:35 2.4 °C 1.7 °C 1032.2 hPa Calm     95% 0.0 mm 0 W/m2
02:40 2.3 °C 1.6 °C 1032.2 hPa Calm     95% 0.0 mm 0 W/m2
02:45 2.2 °C 1.5 °C 1032.2 hPa Calm     95% 0.0 mm 0 W/m2
02:50 2.1 °C 1.4 °C 1032.5 hPa Calm     95% 0.0 mm 0 W/m2
02:55 1.9 °C 1.2 °C 1032.5 hPa Calm     95% 0.0 mm 0 W/m2
03:00 1.8 °C 1.1 °C 1032.5 hPa Calm     95% 0.0 mm 0 W/m2
03:05 1.7 °C 1 °C 1032.5 hPa Calm     95% 0.0 mm 0 W/m2
03:10 1.7 °C 1 °C 1032.8 hPa Calm     95% 0.0 mm 0 W/m2
03:15 1.7 °C 1.1 °C 1032.8 hPa Calm     96% 0.0 mm 0 W/m2
03:20 1.7 °C 1.1 °C 1032.8 hPa Calm     96% 0.0 mm 0 W/m2
03:25 1.8 °C 1.2 °C 1032.8 hPa Calm     96% 0.0 mm 0 W/m2
03:30 2.1 °C 1.5 °C 1032.8 hPa Calm     96% 0.0 mm 0 W/m2
03:35 2.3 °C 1.7 °C 1032.8 hPa Calm     96% 0.0 mm 0 W/m2
03:40 2.4 °C 1.8 °C 1032.8 hPa Calm     96% 0.0 mm 0 W/m2
03:45 2.6 °C 2 °C 1032.8 hPa Calm     96% 0.0 mm 0 W/m2
03:50 2.7 °C 2.1 °C 1032.8 hPa Calm     96% 0.0 mm 0 W/m2
03:55 2.7 °C 2.1 °C 1032.8 hPa Calm     96% 0.0 mm 0 W/m2
04:00 2.8 °C 2.2 °C 1032.8 hPa Calm     96% 0.0 mm 0 W/m2
04:05 2.8 °C 2.2 °C 1032.8 hPa Calm     96% 0.0 mm 0 W/m2
04:10 2.8 °C 2.2 °C 1032.8 hPa Calm     96% 0.0 mm 0 W/m2
04:15 2.8 °C 2.2 °C 1032.8 hPa Calm     96% 0.0 mm 0 W/m2
04:20 2.8 °C 2.2 °C 1032.5 hPa Calm     96% 0.0 mm 0 W/m2
04:25 2.8 °C 2.2 °C 1032.5 hPa Calm     96% 0.0 mm 0 W/m2
04:30 2.8 °C 2.2 °C 1032.5 hPa Calm     96% 0.0 mm 0 W/m2
04:35 2.8 °C 2.2 °C 1032.5 hPa Calm     96% 0.0 mm 0 W/m2
04:40 2.8 °C 2.2 °C 1032.5 hPa Calm     96% 0.0 mm 0 W/m2
04:45 2.8 °C 2.2 °C 1032.5 hPa Calm     96% 0.0 mm 0 W/m2
04:50 2.8 °C 2.2 °C 1032.5 hPa Calm     96% 0.0 mm 0 W/m2
04:55 2.8 °C 2.2 °C 1032.8 hPa Calm     96% 0.0 mm 0 W/m2
05:00 2.8 °C 2.2 °C 1032.8 hPa Calm     96% 0.0 mm 0 W/m2
05:06 2.9 °C 2.3 °C 1032.8 hPa Calm   1.6 km/h 96% 0.0 mm 0 W/m2
05:11 2.9 °C 2.3 °C 1032.8 hPa Calm     96% 0.0 mm 0 W/m2
05:16 2.9 °C 2.3 °C 1032.8 hPa Calm   1.6 km/h 96% 0.0 mm 0 W/m2
05:21 2.9 °C 2.3 °C 1032.8 hPa Calm     96% 0.0 mm 0 W/m2
05:26 2.9 °C 2.3 °C 1033.2 hPa Calm     96% 0.0 mm 0 W/m2
05:31 2.9 °C 2.3 °C 1033.2 hPa Calm     96% 0.0 mm 0 W/m2
05:36 2.9 °C 2.3 °C 1033.2 hPa Calm     96% 0.0 mm 0 W/m2
05:41 2.9 °C 2.3 °C 1033.2 hPa Calm     96% 0.0 mm 0 W/m2
05:46 3 °C 2.4 °C 1032.8 hPa Calm     96% 0.0 mm 0 W/m2
05:51 3 °C 2.4 °C 1033.2 hPa Calm     96% 0.0 mm 0 W/m2
05:56 2.9 °C 2.3 °C 1033.2 hPa Calm     96% 0.0 mm 0 W/m2
06:01 3 °C 2.4 °C 1033.2 hPa Calm     96% 0.0 mm 0 W/m2
06:06 3 °C 2.4 °C 1033.2 hPa Calm     96% 0.0 mm 0 W/m2
06:11 3 °C 2.4 °C 1033.2 hPa Calm     96% 0.0 mm 0 W/m2
06:16 3 °C 2.4 °C 1033.2 hPa Calm     96% 0.0 mm 0 W/m2
06:21 3 °C 2.4 °C 1033.2 hPa Calm     96% 0.0 mm 0 W/m2
06:26 3.1 °C 2.5 °C 1033.2 hPa Calm     96% 0.0 mm 0 W/m2
06:31 3.1 °C 2.5 °C 1033.2 hPa Calm     96% 0.0 mm 0 W/m2
06:36 3.1 °C 2.5 °C 1033.2 hPa Calm     96% 0.0 mm 0 W/m2
06:41 3.1 °C 2.7 °C 1033.2 hPa Calm     97% 0.0 mm 0 W/m2
06:46 3.2 °C 2.6 °C 1033.2 hPa Calm     96% 0.0 mm 0 W/m2
06:51 3.2 °C 2.6 °C 1033.5 hPa Calm     96% 0.0 mm 0 W/m2
06:56 3.2 °C 2.6 °C 1033.5 hPa Calm     96% 0.0 mm 0 W/m2
07:01 3.2 °C 2.6 °C 1033.5 hPa Calm     96% 0.0 mm 0 W/m2
07:06 3.2 °C 2.6 °C 1033.2 hPa Calm     96% 0.0 mm 0 W/m2
07:11 3.2 °C 2.6 °C 1033.2 hPa Calm     96% 0.0 mm 0 W/m2
07:16 3.2 °C 2.6 °C 1033.2 hPa Calm     96% 0.0 mm 0 W/m2
07:21 3.2 °C 2.6 °C 1033.2 hPa Calm     96% 0.0 mm 0 W/m2
07:26 3.2 °C 2.6 °C 1033.2 hPa Calm     96% 0.0 mm 0 W/m2
07:31 3.3 °C 2.7 °C 1033.2 hPa Calm     96% 0.0 mm 0 W/m2
07:36 3.3 °C 2.7 °C 1033.2 hPa Calm     96% 0.0 mm 0 W/m2
07:41 3.3 °C 2.7 °C 1033.2 hPa Calm     96% 0.0 mm 0 W/m2
07:46 3.3 °C 2.7 °C 1033.2 hPa Calm     96% 0.0 mm 0 W/m2
07:51 3.3 °C 2.7 °C 1033.2 hPa Calm     96% 0.0 mm 0 W/m2
07:56 3.3 °C 2.7 °C 1033.2 hPa Calm     96% 0.0 mm 0 W/m2
08:01 3.3 °C 2.7 °C 1033.2 hPa Calm     96% 0.0 mm 0 W/m2
08:06 3.3 °C 2.7 °C 1033.2 hPa Calm     96% 0.0 mm 0 W/m2
08:11 3.4 °C 3 °C 1033.2 hPa Calm     97% 0.0 mm 0 W/m2
08:16 3.3 °C 2.9 °C 1033.2 hPa Calm     97% 0.0 mm 0 W/m2
08:21 3.4 °C 3 °C 1033.2 hPa Calm     97% 0.0 mm 0 W/m2
08:26 3.4 °C 3 °C 1033.2 hPa Calm     97% 0.0 mm 0 W/m2
08:31 3.4 °C 2.8 °C 1033.5 hPa Calm     96% 0.0 mm 0 W/m2
08:36 3.4 °C 3 °C 1033.5 hPa Calm   1.6 km/h 97% 0.0 mm 5 W/m2
08:41 3.5 °C 3.1 °C 1033.5 hPa Calm     97% 0.0 mm 7 W/m2
08:46 3.6 °C 3.2 °C 1033.5 hPa Calm   1.6 km/h 97% 0.0 mm 7 W/m2
08:51 3.7 °C 3.3 °C 1033.5 hPa Calm     97% 0.0 mm 11 W/m2
08:56 3.7 °C 3.1 °C 1033.5 hPa Calm   1.6 km/h 96% 0.0 mm 11 W/m2
09:01 3.8 °C 3.4 °C 1033.5 hPa Calm   1.6 km/h 97% 0.0 mm 12 W/m2
09:06 3.8 °C 3.4 °C 1033.5 hPa Calm     97% 0.0 mm 12 W/m2
09:11 3.9 °C 3.3 °C 1033.5 hPa Calm     96% 0.0 mm 14 W/m2
09:16 3.9 °C 3.3 °C 1033.5 hPa Calm     96% 0.0 mm 18 W/m2
09:21 4 °C 3.4 °C 1033.5 hPa Calm     96% 0.0 mm 23 W/m2
09:26 4.1 °C 3.5 °C 1033.5 hPa Calm     96% 0.0 mm 28 W/m2
09:31 4.1 °C 3.5 °C 1033.5 hPa Calm     96% 0.0 mm 35 W/m2
09:36 4.1 °C 3.5 °C 1033.5 hPa Calm     96% 0.0 mm 37 W/m2
09:41 4.2 °C 3.6 °C 1033.9 hPa Calm     96% 0.0 mm 40 W/m2
09:46 4.2 °C 3.6 °C 1033.9 hPa Calm     96% 0.0 mm 46 W/m2
09:51 4.3 °C 3.7 °C 1033.9 hPa Calm     96% 0.0 mm 47 W/m2
09:56 4.3 °C 3.7 °C 1033.9 hPa Calm     96% 0.0 mm 51 W/m2
10:01 4.4 °C 3.8 °C 1033.9 hPa Calm     96% 0.0 mm 72 W/m2
10:06 4.4 °C 3.8 °C 1033.9 hPa Calm     96% 0.0 mm 90 W/m2
10:11 4.5 °C 3.9 °C 1033.9 hPa Calm     96% 0.0 mm 81 W/m2
10:16 4.6 °C 4 °C 1033.9 hPa Calm     96% 0.0 mm 69 W/m2
10:21 4.7 °C 4.1 °C 1033.9 hPa Calm     96% 0.0 mm 76 W/m2
10:26 4.8 °C 4.2 °C 1033.9 hPa Calm     96% 0.0 mm 72 W/m2
10:31 4.8 °C 4.2 °C 1034.2 hPa Calm     96% 0.0 mm 65 W/m2
10:36 4.9 °C 4.2 °C 1034.2 hPa Calm     95% 0.0 mm 76 W/m2
10:41 5 °C 4.3 °C 1034.2 hPa Calm     95% 0.0 mm 72 W/m2
10:46 5.1 °C 4.4 °C 1034.2 hPa Calm     95% 0.0 mm 77 W/m2
10:51 5.2 °C 4.3 °C 1034.2 hPa Calm     94% 0.0 mm 84 W/m2
10:56 5.2 °C 4.3 °C 1034.2 hPa Calm     94% 0.0 mm 97 W/m2
11:01 5.3 °C 4.4 °C 1034.2 hPa Calm     94% 0.0 mm 113 W/m2
11:06 5.4 °C 4.4 °C 1033.9 hPa Calm     93% 0.0 mm 113 W/m2
11:11 5.5 °C 4.3 °C 1033.9 hPa Calm     92% 0.0 mm 116 W/m2
11:16 5.7 °C 4.5 °C 1033.9 hPa Calm     92% 0.0 mm 109 W/m2
11:21 5.7 °C 4.3 °C 1033.9 hPa Calm     91% 0.0 mm 121 W/m2
11:26 5.8 °C 4.4 °C 1033.9 hPa Calm     91% 0.0 mm 114 W/m2
11:31 5.9 °C 4.4 °C 1033.5 hPa Calm     90% 0.0 mm 109 W/m2
11:36 6 °C 4.3 °C 1033.5 hPa Calm     89% 0.0 mm 118 W/m2
11:41 6 °C 4.2 °C 1033.5 hPa Calm     88% 0.0 mm 127 W/m2
11:46 6.1 °C 4.1 °C 1033.5 hPa Calm     87% 0.0 mm 132 W/m2
11:51 6.1 °C 3.9 °C 1033.5 hPa Calm     86% 0.0 mm 132 W/m2
11:56 6.2 °C 3.9 °C 1033.2 hPa Calm     85% 0.0 mm 127 W/m2
12:01 6.3 °C 4 °C 1033.2 hPa Calm     85% 0.0 mm 120 W/m2
12:06 6.4 °C 3.9 °C 1033.2 hPa Calm     84% 0.0 mm 121 W/m2
12:11 6.3 °C 3.8 °C 1033.5 hPa Calm     84% 0.0 mm 105 W/m2
12:16 6.4 °C 3.9 °C 1033.2 hPa Calm     84% 0.0 mm 120 W/m2
12:22 6.4 °C 3.9 °C 1033.2 hPa Calm     84% 0.0 mm 132 W/m2
12:27 6.4 °C 3.7 °C 1033.2 hPa Calm     83% 0.0 mm 123 W/m2
12:32 6.5 °C 3.8 °C 1033.2 hPa Calm     83% 0.0 mm 127 W/m2
12:37 6.4 °C 3.6 °C 1032.8 hPa Calm     82% 0.0 mm 118 W/m2
12:42 6.4 °C 3.4 °C 1032.8 hPa Calm     81% 0.0 mm 105 W/m2
12:47 6.5 °C 3.5 °C 1032.8 hPa Calm     81% 0.0 mm 102 W/m2
12:52 6.5 °C 3.5 °C 1032.8 hPa Calm   1.6 km/h 81% 0.0 mm 102 W/m2
12:57 6.6 °C 3.6 °C 1032.8 hPa Calm     81% 0.0 mm 97 W/m2
13:02 6.5 °C 3.5 °C 1032.8 hPa Calm     81% 0.0 mm 109 W/m2
13:07 6.6 °C 3.6 °C 1032.8 hPa Calm   1.6 km/h 81% 0.0 mm 111 W/m2
13:12 6.6 °C 3.4 °C 1032.8 hPa Calm   3.2 km/h 80% 0.0 mm 116 W/m2
13:17 6.6 °C 3.6 °C 1032.5 hPa Calm     81% 0.0 mm 120 W/m2
13:22 6.6 °C 3.4 °C 1032.5 hPa Calm   3.2 km/h 80% 0.0 mm 93 W/m2
13:27 6.6 °C 3.4 °C 1032.5 hPa Calm   1.6 km/h 80% 0.0 mm 91 W/m2
13:32 6.6 °C 3.2 °C 1032.5 hPa Calm     79% 0.0 mm 95 W/m2
13:37 6.6 °C 3.2 °C 1032.5 hPa Calm   1.6 km/h 79% 0.0 mm 100 W/m2
13:42 6.6 °C 3 °C 1032.5 hPa Calm   4.8 km/h 78% 0.0 mm 93 W/m2
13:47 6.6 °C 3.2 °C 1032.2 hPa Calm     79% 0.0 mm 86 W/m2
13:52 6.6 °C 3.2 °C 1032.2 hPa Calm   4.8 km/h 79% 0.0 mm 76 W/m2
13:57 6.6 °C 3 °C 1032.2 hPa Calm     78% 0.0 mm 69 W/m2
14:02 6.6 °C 3.2 °C 1032.2 hPa Calm   3.2 km/h 79% 0.0 mm 67 W/m2
14:07 6.5 °C 3.1 °C 1032.2 hPa Calm     79% 0.0 mm 63 W/m2
14:12 6.6 °C 3.2 °C 1031.8 hPa Calm     79% 0.0 mm 72 W/m2
14:17 6.6 °C 3.2 °C 1031.8 hPa Calm     79% 0.0 mm 62 W/m2
14:22 6.6 °C 3.4 °C 1031.8 hPa Calm     80% 0.0 mm 53 W/m2
14:27 6.5 °C 3.3 °C 1031.8 hPa Calm     80% 0.0 mm 46 W/m2
14:32 6.4 °C 3 °C 1031.8 hPa Calm     79% 0.0 mm 44 W/m2
14:38 6.4 °C 3 °C 1031.8 hPa Calm     79% 0.0 mm 35 W/m2
14:43 6.4 °C 3.2 °C 1031.8 hPa Calm   1.6 km/h 80% 0.0 mm 33 W/m2
14:48 6.3 °C 3.1 °C 1031.8 hPa Calm     80% 0.0 mm 35 W/m2
14:53 6.3 °C 3.1 °C 1031.8 hPa Calm     80% 0.0 mm 39 W/m2
14:58 6.3 °C 3.3 °C 1031.8 hPa Calm     81% 0.0 mm 40 W/m2
15:03 6.3 °C 3.3 °C 1031.5 hPa Calm     81% 0.0 mm 42 W/m2
15:08 6.3 °C 3.3 °C 1031.5 hPa Calm     81% 0.0 mm 35 W/m2
15:13 6.3 °C 3.3 °C 1031.5 hPa Calm   1.6 km/h 81% 0.0 mm 44 W/m2
15:18 6.3 °C 3.1 °C 1031.5 hPa Calm     80% 0.0 mm 51 W/m2
15:23 6.3 °C 3.1 °C 1031.8 hPa Calm   1.6 km/h 80% 0.0 mm 46 W/m2
15:28 6.3 °C 3.1 °C 1031.8 hPa Calm     80% 0.0 mm 40 W/m2
15:33 6.3 °C 2.9 °C 1031.8 hPa Calm   1.6 km/h 79% 0.0 mm 35 W/m2
15:38 6.2 °C 2.8 °C 1031.8 hPa Calm     79% 0.0 mm 30 W/m2
15:43 6.2 °C 2.8 °C 1031.8 hPa Calm     79% 0.0 mm 30 W/m2
15:48 6.2 °C 2.6 °C 1031.8 hPa Calm     78% 0.0 mm 28 W/m2
15:53 6.2 °C 2.8 °C 1031.8 hPa Calm     79% 0.0 mm 26 W/m2
15:58 6.2 °C 2.6 °C 1031.8 hPa Calm     78% 0.0 mm 25 W/m2
16:03 6.1 °C 2.6 °C 1031.8 hPa Calm   3.2 km/h 78% 0.0 mm 25 W/m2
16:08 6.1 °C 2.6 °C 1031.8 hPa Calm     78% 0.0 mm 21 W/m2
16:13 6.1 °C 2.4 °C 1031.8 hPa Calm     77% 0.0 mm 19 W/m2
16:18 6.1 °C 2.4 °C 1031.8 hPa Calm     77% 0.0 mm 16 W/m2
16:23 6 °C 2.3 °C 1031.8 hPa Calm     77% 0.0 mm 12 W/m2
16:28 6 °C 2.5 °C 1031.8 hPa Calm     78% 0.0 mm 7 W/m2
16:33 5.9 °C 2.4 °C 1031.8 hPa Calm     78% 0.0 mm 5 W/m2
16:38 5.9 °C 2.4 °C 1031.8 hPa Calm     78% 0.0 mm 0 W/m2
16:43 5.9 °C 2.4 °C 1031.8 hPa Calm     78% 0.0 mm 0 W/m2
16:48 5.9 °C 2.4 °C 1031.8 hPa Calm     78% 0.0 mm 0 W/m2
16:53 5.8 °C 2.3 °C 1031.8 hPa Calm     78% 0.0 mm 0 W/m2
16:58 5.8 °C 2.3 °C 1031.8 hPa Calm   1.6 km/h 78% 0.0 mm 0 W/m2
17:03 5.8 °C 2.3 °C 1031.5 hPa Calm     78% 0.0 mm 0 W/m2
17:08 5.8 °C 2.3 °C 1031.5 hPa Calm   1.6 km/h 78% 0.0 mm 0 W/m2
17:13 5.8 °C 2.4 °C 1031.5 hPa Calm     79% 0.0 mm 0 W/m2
17:18 5.8 °C 2.4 °C 1031.5 hPa Calm   1.6 km/h 79% 0.0 mm 0 W/m2
17:23 5.8 °C 2.4 °C 1031.5 hPa Calm     79% 0.0 mm 0 W/m2
17:28 5.7 °C 2.3 °C 1031.5 hPa Calm     79% 0.0 mm 0 W/m2
17:33 5.7 °C 2.3 °C 1031.5 hPa Calm     79% 0.0 mm 0 W/m2
17:38 5.7 °C 2.3 °C 1031.5 hPa Calm     79% 0.0 mm 0 W/m2
17:43 5.7 °C 2.3 °C 1031.5 hPa Calm     79% 0.0 mm 0 W/m2
17:48 5.7 °C 2.7 °C 1031.5 hPa Calm     81% 0.0 mm 0 W/m2
17:53 5.6 °C 2.4 °C 1031.5 hPa Calm     80% 0.0 mm 0 W/m2
17:58 5.6 °C 2.4 °C 1031.5 hPa Calm     80% 0.0 mm 0 W/m2
18:03 5.5 °C 2.5 °C 1031.5 hPa Calm     81% 0.0 mm 0 W/m2
18:08 5.5 °C 2.7 °C 1031.5 hPa Calm     82% 0.0 mm 0 W/m2
18:13 5.4 °C 2.7 °C 1031.5 hPa Calm     83% 0.0 mm 0 W/m2
18:18 5.4 °C 2.7 °C 1031.5 hPa Calm     83% 0.0 mm 0 W/m2
18:23 5.3 °C 2.6 °C 1031.5 hPa Calm     83% 0.0 mm 0 W/m2
18:28 5.3 °C 2.6 °C 1031.5 hPa Calm     83% 0.0 mm 0 W/m2
18:33 5.2 °C 2.5 °C 1031.5 hPa Calm     83% 0.0 mm 0 W/m2
18:38 5.2 °C 2.5 °C 1031.5 hPa Calm     83% 0.0 mm 0 W/m2
18:43 5.2 °C 2.7 °C 1031.5 hPa Calm     84% 0.0 mm 0 W/m2
18:48 5.2 °C 2.7 °C 1031.2 hPa Calm     84% 0.0 mm 0 W/m2
18:53 5.2 °C 2.7 °C 1031.2 hPa Calm     84% 0.0 mm 0 W/m2
18:58 5.2 °C 2.7 °C 1031.2 hPa Calm     84% 0.0 mm 0 W/m2
19:03 5.2 °C 2.7 °C 1031.2 hPa Calm     84% 0.0 mm 0 W/m2
19:08 5.1 °C 2.8 °C 1031.2 hPa Calm     85% 0.0 mm 0 W/m2
19:13 5.1 °C 2.8 °C 1031.2 hPa Calm     85% 0.0 mm 0 W/m2
19:18 5.1 °C 2.8 °C 1031.2 hPa Calm     85% 0.0 mm 0 W/m2
19:23 5.1 °C 2.6 °C 1031.2 hPa Calm     84% 0.0 mm 0 W/m2
19:28 5.1 °C 2.8 °C 1031.2 hPa Calm     85% 0.0 mm 0 W/m2
19:34 5 °C 2.7 °C 1031.2 hPa Calm     85% 0.0 mm 0 W/m2
19:39 5 °C 2.7 °C 1031.2 hPa Calm     85% 0.0 mm 0 W/m2
19:44 4.9 °C 2.6 °C 1031.2 hPa Calm     85% 0.0 mm 0 W/m2
19:49 4.9 °C 2.6 °C 1031.2 hPa Calm     85% 0.0 mm 0 W/m2
19:54 4.9 °C 2.6 °C 1031.2 hPa Calm     85% 0.0 mm 0 W/m2
19:59 4.8 °C 2.5 °C 1031.2 hPa Calm     85% 0.0 mm 0 W/m2
20:04 4.8 °C 2.7 °C 1031.2 hPa Calm     86% 0.0 mm 0 W/m2
20:09 4.7 °C 2.6 °C 1031.2 hPa Calm     86% 0.0 mm 0 W/m2
20:14 4.6 °C 2.5 °C 1031.2 hPa Calm     86% 0.0 mm 0 W/m2
20:19 4.6 °C 2.6 °C 1031.2 hPa Calm     87% 0.0 mm 0 W/m2
20:24 4.4 °C 2.4 °C 1031.2 hPa Calm     87% 0.0 mm 0 W/m2
20:29 4.4 °C 2.6 °C 1031.2 hPa Calm     88% 0.0 mm 0 W/m2
20:34 4.3 °C 2.5 °C 1031.2 hPa Calm     88% 0.0 mm 0 W/m2
20:39 4.3 °C 2.5 °C 1031.2 hPa Calm     88% 0.0 mm 0 W/m2
20:44 4.3 °C 2.6 °C 1030.8 hPa Calm     89% 0.0 mm 0 W/m2
20:49 4.3 °C 2.6 °C 1030.8 hPa Calm     89% 0.0 mm 0 W/m2
20:54 4.3 °C 2.6 °C 1030.8 hPa Calm     89% 0.0 mm 0 W/m2
20:59 4.3 °C 2.6 °C 1030.8 hPa Calm     89% 0.0 mm 0 W/m2
21:04 4.2 °C 2.4 °C 1030.5 hPa Calm     88% 0.0 mm 0 W/m2
21:09 4.2 °C 2.4 °C 1030.8 hPa Calm     88% 0.0 mm 0 W/m2
21:14 4.2 °C 2.4 °C 1030.5 hPa Calm     88% 0.0 mm 0 W/m2
21:19 4.1 °C 2.3 °C 1030.5 hPa Calm     88% 0.0 mm 0 W/m2
21:24 3.9 °C 2.1 °C 1030.5 hPa Calm     88% 0.0 mm 0 W/m2
21:29 3.8 °C 2 °C 1030.5 hPa Calm     88% 0.0 mm 0 W/m2
21:34 3.7 °C 1.9 °C 1030.5 hPa Calm     88% 0.0 mm 0 W/m2
21:39 3.6 °C 1.8 °C 1030.5 hPa Calm     88% 0.0 mm 0 W/m2
21:44 3.3 °C 1.5 °C 1030.5 hPa Calm     88% 0.0 mm 0 W/m2
21:49 3.1 °C 1.3 °C 1030.5 hPa Calm     88% 0.0 mm 0 W/m2
21:54 2.9 °C 1.3 °C 1030.5 hPa Calm     89% 0.0 mm 0 W/m2
21:59 2.7 °C 1.1 °C 1030.5 hPa Calm     89% 0.0 mm 0 W/m2
22:05 2.6 °C 1 °C 1030.5 hPa Calm     89% 0.0 mm 0 W/m2
22:10 2.4 °C 0.9 °C 1030.5 hPa Calm     90% 0.0 mm 0 W/m2
22:15 2.3 °C 0.8 °C 1030.5 hPa Calm     90% 0.0 mm 0 W/m2
22:20 2.2 °C 0.9 °C 1030.5 hPa Calm     91% 0.0 mm 0 W/m2
22:25 2.2 °C 0.9 °C 1030.5 hPa Calm     91% 0.0 mm 0 W/m2
22:30 2.1 °C 0.8 °C 1030.5 hPa Calm     91% 0.0 mm 0 W/m2
22:35 1.9 °C 0.6 °C 1030.5 hPa Calm     91% 0.0 mm 0 W/m2
22:40 1.8 °C 0.6 °C 1030.5 hPa Calm     92% 0.0 mm 0 W/m2
22:45 1.8 °C 0.6 °C 1030.1 hPa Calm     92% 0.0 mm 0 W/m2
22:50 1.7 °C 0.5 °C 1030.1 hPa Calm     92% 0.0 mm 0 W/m2
22:55 1.7 °C 0.7 °C 1030.1 hPa Calm     93% 0.0 mm 0 W/m2
23:00 1.7 °C 0.7 °C 1030.1 hPa Calm     93% 0.0 mm 0 W/m2
23:05 1.7 °C 0.7 °C 1030.1 hPa Calm     93% 0.0 mm 0 W/m2
23:10 1.7 °C 0.7 °C 1030.1 hPa Calm     93% 0.0 mm 0 W/m2
23:15 1.7 °C 0.7 °C 1030.1 hPa Calm     93% 0.0 mm 0 W/m2
23:20 1.7 °C 0.7 °C 1030.1 hPa Calm     93% 0.0 mm 0 W/m2
23:25 1.6 °C 0.6 °C 1030.1 hPa Calm     93% 0.0 mm 0 W/m2
23:30 1.6 °C 0.6 °C 1030.1 hPa Calm     93% 0.0 mm 0 W/m2
23:35 1.6 °C 0.6 °C 1030.1 hPa Calm     93% 0.0 mm 0 W/m2
23:41 1.6 °C 0.6 °C 1029.8 hPa Calm     93% 0.0 mm 0 W/m2
23:46 1.5 °C 0.6 °C 1029.8 hPa Calm     94% 0.0 mm 0 W/m2
23:51 1.6 °C 0.7 °C 1029.8 hPa Calm     94% 0.0 mm 0 W/m2
23:56 1.6 °C 0.7 °C 1029.8 hPa Calm     94% 0.0 mm 0 W/m2
Juneau County Weather
Compliments of Weather Underground - 4 mb